Terminal Aerodrome Forecast
Issued by NWS

Home | Current Version | Previous Version | Text Only | Print | Product List | Glossary On
Versions: 1 2 3 4 5 6 7 8 9 10 11 12 13 14 15 16 17 18 19 20 21 22 23 24 25 26 27 28 29 30 31 32 33 34 35 36 37 38 39 40 41 42 43 44 45 46 47 48 49 50
012
FTUS43 KDMX 060531
TAFOTM
TAF
KOTM 060531Z 0606/0706 16010KT 6SM BR OVC007
     FM060800 22008KT 5SM BR OVC005
     FM061100 29011G22KT P6SM VCSH BKN011 OVC025
     FM061400 30016G24KT P6SM SCT035 BKN150
     FM062300 28011KT P6SM FEW035=

USA.gov is the U.S. government's official web portal to all federal, state and local government web resources and services.